createdAt,value
2023-03-13T00:01:25.293Z,13.13
2023-03-13T00:03:55.437Z,8.02
2023-03-13T00:06:25.175Z,13.95
2023-03-13T00:08:54.187Z,8.93
2023-03-13T00:11:23.110Z,25.20
2023-03-13T00:13:55.668Z,15.80
2023-03-13T00:16:26.378Z,16.83
2023-03-13T00:18:55.938Z,17.80
2023-03-13T00:21:25.695Z,20.45
2023-03-13T00:23:54.647Z,20.88
2023-03-13T00:26:24.468Z,18.20
2023-03-13T00:28:53.862Z,22.38
2023-03-13T00:31:23.865Z,24.30
2023-03-13T00:33:54.752Z,19.67
2023-03-13T00:36:24.654Z,22.08
2023-03-13T00:38:53.897Z,24.42
2023-03-13T00:41:24.688Z,24.70
2023-03-13T00:43:54.064Z,15.75
2023-03-13T00:46:23.874Z,19.60
2023-03-13T00:48:55.241Z,21.73
2023-03-13T00:51:26.747Z,22.60
2023-03-13T00:53:56.172Z,19.50
2023-03-13T00:56:25.169Z,17.48
2023-03-13T00:58:55.388Z,12.95
2023-03-13T01:01:25.192Z,17.85
2023-03-13T01:03:56.976Z,18.90
2023-03-13T01:06:27.140Z,18.65
2023-03-13T01:09:00.411Z,18.60
2023-03-13T01:11:30.990Z,24.67
2023-03-13T01:14:01.875Z,22.80
2023-03-13T01:16:31.571Z,15.88
2023-03-13T01:19:03.103Z,22.40
2023-03-13T01:21:32.373Z,19.58
2023-03-13T01:24:01.271Z,22.55
2023-03-13T01:26:30.590Z,17.60
2023-03-13T01:28:59.590Z,18.83
2023-03-13T01:31:29.834Z,13.20
2023-03-13T01:34:00.480Z,14.27
2023-03-13T01:36:31.113Z,11.63
2023-03-13T01:39:01.247Z,18.83
2023-03-13T01:41:31.701Z,9.23
2023-03-13T01:46:57.682Z,11.38
2023-03-13T01:49:29.444Z,9.05
2023-03-13T01:52:08.774Z,8.68
2023-03-13T01:54:45.360Z,7.30
2023-03-13T01:57:18.729Z,8.55
2023-03-13T01:59:52.620Z,7.60
2023-03-13T02:02:23.586Z,8.65
2023-03-13T02:04:55.987Z,6.32
2023-03-13T02:07:30.612Z,4.88
2023-03-13T02:10:00.341Z,5.32
2023-03-13T02:12:33.049Z,5.32
2023-03-13T02:15:06.024Z,4.47
2023-03-13T02:17:36.715Z,6.38
2023-03-13T02:20:07.206Z,7.85
2023-03-13T02:22:41.352Z,7.38
2023-03-13T02:25:14.695Z,2.95
2023-03-13T02:27:45.623Z,5.63
2023-03-13T02:30:16.258Z,6.55
2023-03-13T02:32:46.620Z,3.08
2023-03-13T02:35:18.553Z,4.53
2023-03-13T02:37:50.372Z,3.83
2023-03-13T02:40:24.515Z,4.93
2023-03-13T02:42:57.529Z,5.88
2023-03-13T02:45:26.775Z,9.90
2023-03-13T02:47:56.104Z,5.85
2023-03-13T02:50:25.415Z,10.52
2023-03-13T02:52:57.547Z,3.38
2023-03-13T02:55:30.593Z,7.05
2023-03-13T02:58:01.652Z,4.78
2023-03-13T03:00:36.690Z,7.65
2023-03-13T03:03:08.450Z,14.38
2023-03-13T03:05:39.185Z,8.75
2023-03-13T03:08:08.364Z,6.28
2023-03-13T03:10:38.188Z,8.73
2023-03-13T03:13:11.547Z,8.45
2023-03-13T03:15:41.084Z,2.35
2023-03-13T03:18:10.207Z,3.30
2023-03-13T03:20:39.824Z,9.20
2023-03-13T03:23:08.739Z,4.80
2023-03-13T03:25:37.693Z,7.72
2023-03-13T03:28:07.671Z,4.30
2023-03-13T03:30:38.608Z,3.75
2023-03-13T03:33:08.822Z,2.50
2023-03-13T03:35:39.102Z,3.33
2023-03-13T03:38:10.076Z,1.47
2023-03-13T03:40:40.412Z,5.93
2023-03-13T03:43:09.428Z,3.25
2023-03-13T03:45:40.392Z,3.17
2023-03-13T03:48:09.602Z,3.55
2023-03-13T03:50:38.937Z,1.73
2023-03-13T03:53:08.255Z,3.83
2023-03-13T03:55:37.723Z,2.65
2023-03-13T03:58:07.272Z,4.22
2023-03-13T04:00:58.380Z,3.92
2023-03-13T04:03:28.200Z,1.47
2023-03-13T04:05:58.198Z,1.58
2023-03-13T04:08:28.526Z,2.13
2023-03-13T04:10:58.257Z,2.63
2023-03-13T04:13:28.808Z,1.27
2023-03-13T04:16:08.040Z,3.45
2023-03-13T04:18:37.593Z,2.53
2023-03-13T04:21:07.829Z,4.75
2023-03-13T04:23:47.807Z,2.95
2023-03-13T04:26:18.622Z,5.95
2023-03-13T04:28:48.604Z,2.83
2023-03-13T04:31:23.429Z,5.03
2023-03-13T04:34:15.664Z,6.45
2023-03-13T04:37:03.554Z,4.47
2023-03-13T04:42:35.879Z,2.42
2023-03-13T04:45:25.631Z,4.78
2023-03-13T04:48:16.456Z,3.20
2023-03-13T04:50:57.901Z,3.75
2023-03-13T04:53:32.542Z,5.93
2023-03-13T04:56:08.644Z,3.03
2023-03-13T04:58:56.208Z,4.80
2023-03-13T05:01:38.477Z,9.70
2023-03-13T05:04:45.467Z,7.65
2023-03-13T05:07:53.401Z,7.50
2023-03-13T05:10:38.480Z,5.18
2023-03-13T05:13:28.084Z,8.00
2023-03-13T05:16:06.331Z,7.20
2023-03-13T05:18:57.630Z,5.22
2023-03-13T05:21:50.517Z,7.40
2023-03-13T05:24:40.224Z,11.27
2023-03-13T05:27:21.152Z,9.70
2023-03-13T05:30:11.729Z,9.50
2023-03-13T05:33:06.740Z,12.43
2023-03-13T05:36:04.119Z,10.20
2023-03-13T05:39:07.354Z,10.52
2023-03-13T05:41:51.177Z,8.50
2023-03-13T05:44:23.139Z,12.57
2023-03-13T05:47:04.230Z,8.82
2023-03-13T05:49:51.849Z,7.20
2023-03-13T05:52:40.836Z,12.13
2023-03-13T05:55:31.828Z,10.38
2023-03-13T05:58:24.589Z,11.23
2023-03-13T06:01:10.867Z,10.98
2023-03-13T06:03:57.856Z,10.77
2023-03-13T06:06:28.214Z,14.55
2023-03-13T06:08:58.834Z,12.82
2023-03-13T06:11:32.117Z,10.65
2023-03-13T06:14:01.340Z,12.68
2023-03-13T06:16:42.476Z,10.20
2023-03-13T06:19:20.384Z,10.40
2023-03-13T06:21:49.259Z,9.13
2023-03-13T06:24:18.240Z,8.82
2023-03-13T06:26:50.000Z,14.30
2023-03-13T06:29:19.188Z,9.07
2023-03-13T06:31:48.242Z,6.07
2023-03-13T06:34:17.370Z,13.80
2023-03-13T06:36:46.686Z,18.27
2023-03-13T06:39:15.810Z,13.10
2023-03-13T06:41:44.847Z,15.80
2023-03-13T06:44:15.147Z,16.95
2023-03-13T06:46:44.109Z,20.30
2023-03-13T06:49:13.076Z,13.90
2023-03-13T06:51:41.963Z,16.70
2023-03-13T06:54:11.070Z,15.77
2023-03-13T06:56:40.038Z,12.65
2023-03-13T06:59:09.515Z,17.58
2023-03-13T07:01:41.062Z,21.75
2023-03-13T07:04:12.092Z,18.77
2023-03-13T07:06:41.731Z,15.07
2023-03-13T07:09:11.487Z,17.38
2023-03-13T07:11:40.453Z,24.58
2023-03-13T07:14:16.870Z,23.10
2023-03-13T07:16:48.559Z,17.30
2023-03-13T07:19:17.750Z,19.27
2023-03-13T07:21:46.905Z,20.52
2023-03-13T07:24:16.095Z,19.88
2023-03-13T07:27:01.537Z,18.13
2023-03-13T07:29:33.339Z,21.27
2023-03-13T07:32:03.700Z,16.73
2023-03-13T07:34:32.624Z,26.40
2023-03-13T07:37:01.600Z,25.05
2023-03-13T07:39:30.514Z,29.27
2023-03-13T07:41:59.509Z,20.25
2023-03-13T07:44:28.878Z,20.88
2023-03-13T07:46:59.482Z,20.38
2023-03-13T07:49:30.728Z,26.23
2023-03-13T07:51:59.640Z,23.35
2023-03-13T07:54:28.493Z,22.30
2023-03-13T07:56:57.430Z,20.83
2023-03-13T07:59:26.406Z,24.95
2023-03-13T08:01:55.271Z,24.27
2023-03-13T08:04:24.138Z,22.65
2023-03-13T08:06:54.705Z,25.30
2023-03-13T08:09:24.610Z,23.02
2023-03-13T08:11:53.642Z,32.30
2023-03-13T08:14:22.698Z,23.20
2023-03-13T08:16:51.757Z,26.50
2023-03-13T08:19:20.791Z,23.35
2023-03-13T08:21:49.869Z,20.63
2023-03-13T08:24:20.334Z,19.10
2023-03-13T08:26:49.302Z,25.05
2023-03-13T08:29:18.392Z,19.05
2023-03-13T08:31:48.644Z,31.38
2023-03-13T08:34:18.333Z,23.98
2023-03-13T08:36:47.453Z,27.00
2023-03-13T08:39:17.245Z,30.48
2023-03-13T08:41:48.461Z,21.35
2023-03-13T08:44:20.041Z,18.33
2023-03-13T08:46:49.448Z,23.13
2023-03-13T08:49:18.765Z,26.38
2023-03-13T08:51:47.707Z,21.38
2023-03-13T08:54:16.639Z,20.50
2023-03-13T08:56:46.974Z,19.27
2023-03-13T08:59:16.313Z,25.98
2023-03-13T09:01:45.426Z,20.05
2023-03-13T09:04:14.478Z,16.38
2023-03-13T09:06:43.501Z,24.52
2023-03-13T09:09:13.033Z,27.08
2023-03-13T09:11:42.151Z,19.80
2023-03-13T09:14:12.867Z,19.33
2023-03-13T09:16:41.834Z,21.65
2023-03-13T09:19:10.903Z,24.40
2023-03-13T09:21:39.860Z,28.38
2023-03-13T09:24:10.847Z,25.48
2023-03-13T09:26:46.509Z,22.65
2023-03-13T09:29:23.158Z,24.05
2023-03-13T09:31:52.334Z,20.02
2023-03-13T09:34:23.290Z,19.33
2023-03-13T09:36:52.266Z,17.92
2023-03-13T09:39:21.751Z,21.60
2023-03-13T09:41:55.123Z,21.13
2023-03-13T09:44:27.657Z,30.20
2023-03-13T09:47:02.177Z,19.75
2023-03-13T09:49:33.209Z,27.25
2023-03-13T09:52:09.822Z,23.92
2023-03-13T09:54:40.436Z,23.27
2023-03-13T09:57:14.976Z,24.30
2023-03-13T09:59:50.200Z,21.63
2023-03-13T10:02:23.574Z,27.58
2023-03-13T10:04:55.658Z,23.55
2023-03-13T10:07:24.789Z,17.40
2023-03-13T10:09:54.581Z,29.23
2023-03-13T10:12:28.246Z,23.52
2023-03-13T10:15:05.264Z,28.92
2023-03-13T10:17:35.353Z,21.15
2023-03-13T10:20:13.348Z,18.85
2023-03-13T10:22:43.990Z,23.67
2023-03-13T10:25:21.536Z,22.98
2023-03-13T10:27:51.294Z,21.33
2023-03-13T10:30:24.833Z,28.85
2023-03-13T10:32:56.215Z,29.25
2023-03-13T10:35:25.653Z,23.20
2023-03-13T10:38:04.681Z,26.17
2023-03-13T10:40:33.861Z,21.00
2023-03-13T10:43:04.092Z,24.38
2023-03-13T10:45:36.520Z,24.92
2023-03-13T10:48:13.001Z,26.48
2023-03-13T10:50:45.187Z,22.15
2023-03-13T10:53:25.515Z,22.35
2023-03-13T10:55:55.777Z,22.02
2023-03-13T10:58:32.169Z,19.10
2023-03-13T11:01:17.605Z,25.15
2023-03-13T11:03:47.260Z,21.73
2023-03-13T11:06:28.763Z,25.83
2023-03-13T11:09:13.614Z,26.63
2023-03-13T11:11:50.783Z,22.20
2023-03-13T11:14:21.249Z,18.92
2023-03-13T11:16:53.310Z,22.00
2023-03-13T11:19:30.434Z,22.80
2023-03-13T11:22:06.694Z,20.27
2023-03-13T11:24:40.858Z,21.00
2023-03-13T11:27:16.237Z,27.90
2023-03-13T11:29:51.172Z,22.83
2023-03-13T11:32:24.892Z,23.15
2023-03-13T11:34:56.459Z,22.27
2023-03-13T11:37:26.820Z,18.13
2023-03-13T11:40:01.482Z,21.27
2023-03-13T11:42:51.707Z,19.75
2023-03-13T11:45:30.302Z,20.58
2023-03-13T11:48:04.698Z,21.65
2023-03-13T11:50:37.649Z,19.90
2023-03-13T11:53:16.574Z,24.80
2023-03-13T11:55:50.103Z,21.60
2023-03-13T11:58:33.218Z,18.48
2023-03-13T12:01:05.103Z,15.32
2023-03-13T12:03:39.863Z,24.83
2023-03-13T12:06:27.296Z,22.02
2023-03-13T12:09:00.935Z,25.23
2023-03-13T12:11:31.891Z,26.75
2023-03-13T12:14:02.925Z,23.27
2023-03-13T12:16:43.075Z,20.80
2023-03-13T12:19:17.286Z,24.35
2023-03-13T12:21:49.190Z,22.48
2023-03-13T12:24:23.008Z,26.20
2023-03-13T12:26:54.651Z,25.05
2023-03-13T12:29:29.884Z,25.17
2023-03-13T12:32:01.757Z,21.15
2023-03-13T12:34:35.295Z,19.20
2023-03-13T12:37:08.449Z,25.27
2023-03-13T12:39:40.170Z,27.20
2023-03-13T12:42:17.614Z,23.83
2023-03-13T12:44:51.239Z,18.27
2023-03-13T12:47:27.949Z,26.83
2023-03-13T12:50:06.117Z,23.05
2023-03-13T12:52:50.147Z,17.00
2023-03-13T12:55:29.250Z,30.38
2023-03-13T12:58:17.905Z,22.65
2023-03-13T13:00:51.148Z,24.05
2023-03-13T13:03:27.648Z,23.42
2023-03-13T13:06:02.679Z,21.85
2023-03-13T13:08:35.066Z,19.73
2023-03-13T13:11:19.807Z,26.35
2023-03-13T13:13:49.305Z,20.05
2023-03-13T13:16:22.338Z,21.65
2023-03-13T13:18:52.431Z,27.58
2023-03-13T13:21:26.448Z,25.13
2023-03-13T13:23:56.581Z,23.90
2023-03-13T13:26:49.763Z,27.55
2023-03-13T13:29:37.775Z,23.02
2023-03-13T13:32:16.519Z,21.77
2023-03-13T13:35:02.404Z,23.77
2023-03-13T13:37:33.526Z,26.58
2023-03-13T13:40:22.999Z,21.02
2023-03-13T13:42:53.554Z,27.15
2023-03-13T13:45:25.730Z,23.00
2023-03-13T13:48:17.070Z,25.10
2023-03-13T13:51:04.994Z,20.47
2023-03-13T13:53:41.234Z,21.00
2023-03-13T13:56:29.642Z,27.38
2023-03-13T13:59:00.192Z,21.17
2023-03-13T14:01:29.276Z,25.15
2023-03-13T14:04:03.512Z,32.97
2023-03-13T14:06:37.616Z,26.35
2023-03-13T14:09:15.130Z,20.70
2023-03-13T14:11:44.625Z,24.85
2023-03-13T14:14:16.553Z,20.45
2023-03-13T14:16:47.547Z,23.10
2023-03-13T14:19:27.130Z,21.33
2023-03-13T14:22:02.862Z,25.75
2023-03-13T14:24:33.558Z,25.95
2023-03-13T14:27:02.844Z,17.63
2023-03-13T14:29:31.928Z,25.88
2023-03-13T14:32:01.826Z,21.40
2023-03-13T14:34:32.768Z,23.02
2023-03-13T14:37:17.709Z,25.63
2023-03-13T14:39:49.423Z,23.77
2023-03-13T14:42:19.518Z,24.65
2023-03-13T14:44:50.365Z,22.08
2023-03-13T14:47:24.569Z,26.40
2023-03-13T14:49:58.842Z,20.92
2023-03-13T14:52:29.032Z,22.40
2023-03-13T14:55:02.182Z,21.40
2023-03-13T14:57:32.603Z,21.92
2023-03-13T15:00:16.549Z,24.40
2023-03-13T15:02:45.628Z,22.83
2023-03-13T15:05:29.623Z,20.40
2023-03-13T15:07:58.687Z,27.33
2023-03-13T15:10:33.836Z,17.70
2023-03-13T15:13:15.602Z,23.08
2023-03-13T15:15:44.779Z,17.88
2023-03-13T15:18:20.000Z,21.52
2023-03-13T15:20:52.496Z,25.13
2023-03-13T15:23:22.384Z,25.23
2023-03-13T15:25:52.870Z,20.00
2023-03-13T15:28:23.087Z,25.15
2023-03-13T15:30:53.373Z,15.85
2023-03-13T15:33:23.570Z,28.30
2023-03-13T15:35:52.589Z,20.13
2023-03-13T15:38:22.624Z,21.85
2023-03-13T15:40:53.597Z,23.38
2023-03-13T15:43:23.512Z,16.67
2023-03-13T15:45:53.460Z,22.35
2023-03-13T15:48:23.326Z,22.83
2023-03-13T15:50:53.127Z,20.92
2023-03-13T15:53:23.933Z,20.25
2023-03-13T15:55:55.334Z,26.27
2023-03-13T15:58:25.864Z,23.27
2023-03-13T16:00:55.007Z,13.25
2023-03-13T16:03:25.938Z,16.85
2023-03-13T16:05:55.402Z,24.33
2023-03-13T16:08:35.235Z,21.50
2023-03-13T16:11:08.303Z,16.58
2023-03-13T16:13:37.268Z,21.83
2023-03-13T16:16:11.769Z,14.90
2023-03-13T16:18:40.730Z,15.88
2023-03-13T16:21:10.969Z,20.88
2023-03-13T16:23:39.962Z,18.52
2023-03-13T16:26:14.655Z,18.70
2023-03-13T16:28:44.160Z,20.88
2023-03-13T16:31:18.207Z,13.13
2023-03-13T16:33:47.918Z,29.35
2023-03-13T16:36:18.033Z,16.33
2023-03-13T16:38:47.403Z,16.02
2023-03-13T16:41:18.829Z,22.90
2023-03-13T16:43:48.168Z,21.75
2023-03-13T16:46:18.823Z,22.55
2023-03-13T16:48:48.591Z,18.50
2023-03-13T16:51:18.577Z,23.92
2023-03-13T16:53:48.135Z,16.92
2023-03-13T16:56:21.701Z,14.93
2023-03-13T16:58:50.988Z,25.80
2023-03-13T17:01:20.067Z,16.75
2023-03-13T17:03:49.449Z,17.63
2023-03-13T17:06:19.519Z,26.27
2023-03-13T17:08:49.190Z,24.15
2023-03-13T17:11:21.013Z,19.65
2023-03-13T17:13:50.826Z,23.42
2023-03-13T17:16:21.087Z,19.50
2023-03-13T17:18:51.737Z,21.67
2023-03-13T17:21:21.682Z,20.17
2023-03-13T17:23:50.628Z,24.15
2023-03-13T17:26:22.632Z,18.60
2023-03-13T17:31:21.413Z,18.90
2023-03-13T17:33:50.844Z,21.50
2023-03-13T17:36:21.267Z,15.02
2023-03-13T17:38:53.586Z,17.60
2023-03-13T17:41:25.625Z,18.02
2023-03-13T17:46:24.536Z,18.50
2023-03-13T17:48:54.350Z,21.40
2023-03-13T17:51:24.927Z,16.35
2023-03-13T17:53:54.891Z,18.63
2023-03-13T17:56:26.150Z,17.45
2023-03-13T17:58:57.827Z,21.58
2023-03-13T18:01:28.954Z,18.08
2023-03-13T18:03:58.134Z,27.95
2023-03-13T18:06:28.214Z,20.42
2023-03-13T18:08:58.848Z,16.20
2023-03-13T18:11:29.372Z,13.15
2023-03-13T18:13:58.393Z,16.42
2023-03-13T18:16:30.328Z,17.05
2023-03-13T18:18:59.550Z,13.05
2023-03-13T18:21:28.750Z,12.68
2023-03-13T18:23:58.942Z,16.92
2023-03-13T18:26:31.345Z,13.85
2023-03-13T18:29:01.220Z,17.20
2023-03-13T18:31:31.195Z,16.20
2023-03-13T18:34:00.635Z,11.57
2023-03-13T18:36:29.968Z,14.45
2023-03-13T18:38:59.447Z,9.98
2023-03-13T18:41:29.848Z,15.73
2023-03-13T18:43:59.170Z,21.63
2023-03-13T18:46:30.006Z,14.18
2023-03-13T18:49:00.308Z,13.43
2023-03-13T18:51:30.882Z,14.88
2023-03-13T18:53:59.940Z,13.32
2023-03-13T18:56:32.074Z,11.93
2023-03-13T18:59:01.397Z,20.95
2023-03-13T19:01:31.582Z,15.15
2023-03-13T19:04:01.218Z,11.15
2023-03-13T19:06:31.479Z,18.02
2023-03-13T19:09:01.516Z,12.15
2023-03-13T19:11:33.273Z,14.95
2023-03-13T19:14:02.247Z,18.42
2023-03-13T19:16:35.083Z,12.02
2023-03-13T19:19:04.557Z,11.48
2023-03-13T19:21:33.786Z,12.20
2023-03-13T19:24:02.796Z,25.30
2023-03-13T19:26:35.193Z,13.68
2023-03-13T19:29:04.285Z,13.35
2023-03-13T19:31:33.419Z,14.98
2023-03-13T19:34:02.685Z,11.35
2023-03-13T19:36:35.015Z,17.05
2023-03-13T19:39:05.575Z,12.63
2023-03-13T19:41:36.097Z,14.05
2023-03-13T19:44:05.174Z,14.20
2023-03-13T19:46:35.477Z,18.50
2023-03-13T19:49:05.345Z,13.82
2023-03-13T19:51:34.674Z,12.27
2023-03-13T19:54:04.013Z,10.77
2023-03-13T19:56:34.151Z,11.13
2023-03-13T19:59:05.780Z,13.30
2023-03-13T20:01:34.995Z,10.10
2023-03-13T20:04:05.828Z,18.25
2023-03-13T20:06:36.127Z,15.95
2023-03-13T20:09:06.425Z,8.13
2023-03-13T20:11:35.547Z,7.47
2023-03-13T20:14:06.610Z,13.40
2023-03-13T20:16:36.140Z,8.43
2023-03-13T20:19:05.543Z,9.48
2023-03-13T20:21:35.893Z,9.80
2023-03-13T20:24:05.178Z,10.15
2023-03-13T20:26:34.592Z,20.08
2023-03-13T20:29:03.808Z,10.27
2023-03-13T20:31:34.875Z,14.50
2023-03-13T20:34:04.265Z,16.13
2023-03-13T20:36:33.367Z,9.40
2023-03-13T20:39:02.665Z,11.55
2023-03-13T20:41:31.745Z,4.55
2023-03-13T20:44:00.812Z,10.07
2023-03-13T20:46:29.901Z,9.98
2023-03-13T20:49:00.442Z,6.18
2023-03-13T20:51:30.040Z,11.27
2023-03-13T20:53:59.335Z,11.75
2023-03-13T20:56:29.048Z,10.75
2023-03-13T20:58:58.604Z,13.95
2023-03-13T21:01:28.097Z,15.23
2023-03-13T21:03:57.980Z,13.10
2023-03-13T21:06:30.253Z,15.60
2023-03-13T21:08:59.501Z,12.13
2023-03-13T21:11:28.598Z,11.18
2023-03-13T21:13:58.334Z,12.48
2023-03-13T21:16:27.773Z,21.20
2023-03-13T21:18:56.835Z,9.07
2023-03-13T21:21:26.205Z,15.70
2023-03-13T21:23:56.820Z,14.18
2023-03-13T21:26:26.149Z,6.70
2023-03-13T21:28:55.266Z,9.90
2023-03-13T21:31:24.240Z,15.73
2023-03-13T21:33:53.357Z,17.63
2023-03-13T21:36:23.079Z,11.43
2023-03-13T21:38:52.349Z,14.82
2023-03-13T21:41:23.579Z,13.95
2023-03-13T21:43:52.990Z,16.03
2023-03-13T21:46:23.597Z,9.95
2023-03-13T21:48:52.750Z,12.10
2023-03-13T21:51:21.690Z,16.88
2023-03-13T21:53:50.746Z,14.13
2023-03-13T21:56:21.160Z,8.82
2023-03-13T21:58:51.776Z,14.85
2023-03-13T22:01:22.294Z,13.27
2023-03-13T22:03:51.809Z,15.13
2023-03-13T22:06:22.580Z,18.08
2023-03-13T22:08:52.001Z,12.48
2023-03-13T22:11:21.087Z,28.65
2023-03-13T22:13:50.253Z,14.43
2023-03-13T22:16:21.419Z,14.85
2023-03-13T22:18:50.435Z,13.63
2023-03-13T22:21:19.500Z,11.23
2023-03-13T22:23:48.760Z,18.05
2023-03-13T22:26:17.743Z,16.10
2023-03-13T22:28:46.694Z,24.05
2023-03-13T22:31:16.521Z,15.55
2023-03-13T22:33:46.872Z,17.98
2023-03-13T22:36:16.042Z,14.50
2023-03-13T22:38:44.961Z,22.05
2023-03-13T22:41:15.507Z,20.58
2023-03-13T22:43:44.680Z,17.63
2023-03-13T22:46:14.067Z,18.48
2023-03-13T22:48:43.186Z,15.13
2023-03-13T22:51:14.521Z,13.77
2023-03-13T22:53:43.974Z,21.95
2023-03-13T22:56:14.047Z,19.52
2023-03-13T22:58:43.229Z,13.20
2023-03-13T23:01:13.413Z,21.35
2023-03-13T23:03:42.728Z,20.95
2023-03-13T23:06:14.810Z,24.25
2023-03-13T23:08:45.252Z,23.50
2023-03-13T23:11:14.485Z,22.75
2023-03-13T23:13:43.529Z,14.02
2023-03-13T23:16:13.273Z,25.10
2023-03-13T23:18:42.659Z,22.90
2023-03-13T23:21:12.712Z,16.38
2023-03-13T23:23:42.969Z,13.23
2023-03-13T23:26:14.670Z,16.90
2023-03-13T23:28:43.920Z,19.40
2023-03-13T23:31:13.848Z,21.58
2023-03-13T23:33:42.950Z,14.27
2023-03-13T23:36:13.594Z,15.90
2023-03-13T23:38:42.861Z,23.65
2023-03-13T23:41:12.624Z,19.70
2023-03-13T23:43:43.196Z,14.23
2023-03-13T23:46:17.564Z,21.10
2023-03-13T23:48:46.762Z,22.05
2023-03-13T23:51:16.145Z,24.27
2023-03-13T23:53:45.209Z,13.90
2023-03-13T23:56:14.355Z,23.00
2023-03-13T23:58:45.233Z,19.75
